createdAt,value
2018-05-07T00:00:07.971Z,101324.14
2018-05-07T00:02:37.195Z,101322.75
2018-05-07T00:05:05.623Z,101319.48
2018-05-07T00:07:34.100Z,101321.45
2018-05-07T00:10:03.287Z,101324.87
2018-05-07T00:12:31.743Z,101318.66
2018-05-07T00:15:00.248Z,101317.84
2018-05-07T00:17:29.421Z,101316.36
2018-05-07T00:19:57.869Z,101312.33
2018-05-07T00:22:27.065Z,101315.19
2018-05-07T00:24:55.529Z,101306.35
2018-05-07T00:27:23.981Z,101305.69
2018-05-07T00:29:53.186Z,101309.27
2018-05-07T00:32:21.639Z,101309.45
2018-05-07T00:34:50.067Z,101310.95
2018-05-07T00:37:18.495Z,101315.23
2018-05-07T00:39:46.964Z,101311.91
2018-05-07T00:42:15.391Z,101309.37
2018-05-07T00:44:43.837Z,101306.86
2018-05-07T00:47:12.279Z,101303.46
2018-05-07T00:49:40.698Z,101303.77
2018-05-07T00:52:09.166Z,101296.33
2018-05-07T00:54:55.826Z,101304.28
2018-05-07T00:57:24.301Z,101302.57
2018-05-07T00:59:52.756Z,101311.75
2018-05-07T01:02:21.178Z,101305.14
2018-05-07T01:04:49.621Z,101309.63
2018-05-07T01:07:18.810Z,101312.63
2018-05-07T01:09:47.279Z,101313.35
2018-05-07T01:12:15.722Z,101308.68
2018-05-07T01:14:44.160Z,101321.84
2018-05-07T01:17:13.370Z,101317.02
2018-05-07T01:19:41.812Z,101331.41
2018-05-07T01:22:10.249Z,101329.32
2018-05-07T01:24:38.656Z,101339.83
2018-05-07T01:27:07.083Z,101336.93
2018-05-07T01:29:35.554Z,101327.51
2018-05-07T01:32:04.003Z,101333.77
2018-05-07T01:34:32.491Z,101328.00
2018-05-07T01:37:00.894Z,101327.66
2018-05-07T01:39:29.322Z,101325.77
2018-05-07T01:41:58.544Z,101324.57
2018-05-07T01:44:28.540Z,101324.17
2018-05-07T01:46:57.023Z,101329.06
2018-05-07T01:49:25.459Z,101324.73
2018-05-07T01:51:53.875Z,101324.56
2018-05-07T01:54:22.329Z,101316.59
2018-05-07T01:56:50.766Z,101320.25
2018-05-07T01:59:19.200Z,101306.92
2018-05-07T02:01:47.647Z,101322.20
2018-05-07T02:04:16.093Z,101313.20
2018-05-07T02:06:44.555Z,101316.50
2018-05-07T02:09:13.036Z,101305.16
2018-05-07T02:11:43.175Z,101309.25
2018-05-07T02:14:11.642Z,101306.80
2018-05-07T02:16:40.108Z,101311.30
2018-05-07T02:19:08.553Z,101306.60
2018-05-07T02:21:36.978Z,101308.55
2018-05-07T02:24:05.494Z,101306.31
2018-05-07T02:26:33.925Z,101301.18
2018-05-07T02:29:03.127Z,101306.84
2018-05-07T02:31:31.591Z,101309.83
2018-05-07T02:34:00.025Z,101314.57
2018-05-07T02:36:28.493Z,101320.08
2018-05-07T02:38:56.998Z,101319.30
2018-05-07T02:41:25.387Z,101313.59
2018-05-07T02:43:53.828Z,101308.75
2018-05-07T02:46:22.328Z,101309.91
2018-05-07T02:48:50.792Z,101309.95
2018-05-07T02:51:19.230Z,101300.34
2018-05-07T02:53:47.661Z,101298.32
2018-05-07T02:56:16.115Z,101299.64
2018-05-07T02:58:44.597Z,101299.61
2018-05-07T03:01:13.056Z,101301.56
2018-05-07T03:03:41.461Z,101296.36
2018-05-07T03:06:09.896Z,101300.48
2018-05-07T03:08:38.333Z,101291.80
2018-05-07T03:11:07.524Z,101294.80
2018-05-07T03:13:35.977Z,101301.05
2018-05-07T03:16:04.404Z,101293.33
2018-05-07T03:18:32.854Z,101292.07
2018-05-07T03:21:01.307Z,101292.15
2018-05-07T03:23:29.719Z,101285.52
2018-05-07T03:25:58.179Z,101282.88
2018-05-07T03:28:27.382Z,101284.53
2018-05-07T03:30:55.809Z,101279.52
2018-05-07T03:33:24.263Z,101278.58
2018-05-07T03:35:52.683Z,101284.46
2018-05-07T03:38:21.166Z,101277.13
2018-05-07T03:40:49.627Z,101276.91
2018-05-07T03:43:18.086Z,101266.71
2018-05-07T03:45:46.528Z,101269.98
2018-05-07T03:48:15.713Z,101266.25
2018-05-07T03:50:44.177Z,101269.12
2018-05-07T03:53:13.364Z,101269.78
2018-05-07T03:55:41.795Z,101265.43
2018-05-07T03:58:11.007Z,101263.89
2018-05-07T04:00:39.427Z,101258.99
2018-05-07T04:03:08.632Z,101259.73
2018-05-07T04:05:37.134Z,101261.82
2018-05-07T04:08:05.583Z,101258.88
2018-05-07T04:10:34.026Z,101260.89
2018-05-07T04:13:02.481Z,101246.42
2018-05-07T04:15:31.728Z,101250.31
2018-05-07T04:18:17.683Z,101250.56
2018-05-07T04:21:03.601Z,101255.35
2018-05-07T04:23:49.529Z,101251.36
2018-05-07T04:26:18.091Z,101253.83
2018-05-07T04:28:46.517Z,101255.44
2018-05-07T04:31:14.946Z,101257.97
2018-05-07T04:33:43.417Z,101254.55
2018-05-07T04:36:11.852Z,101256.31
2018-05-07T04:38:40.317Z,101247.53
2018-05-07T04:41:08.746Z,101253.20
2018-05-07T04:43:37.233Z,101249.02
2018-05-07T04:46:05.800Z,101255.33
2018-05-07T04:48:35.064Z,101252.81
2018-05-07T04:51:04.368Z,101252.06
2018-05-07T04:53:32.799Z,101252.56
2018-05-07T04:56:01.254Z,101251.84
2018-05-07T04:58:29.690Z,101256.23
2018-05-07T05:00:58.164Z,101251.80
2018-05-07T05:03:26.576Z,101255.58
2018-05-07T05:05:55.798Z,101256.77
2018-05-07T05:08:24.980Z,101257.19
2018-05-07T05:10:53.402Z,101264.47
2018-05-07T05:13:21.872Z,101265.27
2018-05-07T05:15:50.318Z,101270.95
2018-05-07T05:18:18.808Z,101267.72
2018-05-07T05:20:47.263Z,101266.02
2018-05-07T05:23:15.696Z,101261.96
2018-05-07T05:25:44.117Z,101257.97
2018-05-07T05:28:12.592Z,101259.46
2018-05-07T05:30:41.010Z,101257.31
2018-05-07T05:33:09.431Z,101259.38
2018-05-07T05:35:37.887Z,101259.58
2018-05-07T05:38:06.326Z,101257.74
2018-05-07T05:40:34.795Z,101257.11
2018-05-07T05:43:03.981Z,101259.80
2018-05-07T05:45:32.440Z,101251.55
2018-05-07T05:48:00.867Z,101254.20
2018-05-07T05:50:29.317Z,101255.25
2018-05-07T05:52:58.528Z,101250.27
2018-05-07T05:55:26.964Z,101243.36
2018-05-07T05:57:56.190Z,101245.22
2018-05-07T06:00:24.636Z,101251.22
2018-05-07T06:02:53.083Z,101261.05
2018-05-07T06:05:21.529Z,101263.20
2018-05-07T06:07:49.992Z,101262.23
2018-05-07T06:10:18.459Z,101257.87
2018-05-07T06:12:46.893Z,101261.55
2018-05-07T06:15:15.356Z,101260.63
2018-05-07T06:17:44.250Z,101265.48
2018-05-07T06:20:12.721Z,101256.20
2018-05-07T06:22:41.138Z,101255.45
2018-05-07T06:25:10.378Z,101251.70
2018-05-07T06:27:38.815Z,101249.93
2018-05-07T06:30:07.277Z,101245.63
2018-05-07T06:32:36.472Z,101245.92
2018-05-07T06:35:04.885Z,101245.67
2018-05-07T06:37:34.127Z,101241.06
2018-05-07T06:40:02.589Z,101240.67
2018-05-07T06:42:31.058Z,101245.23
2018-05-07T06:44:59.490Z,101239.02
2018-05-07T06:47:27.956Z,101240.58
2018-05-07T06:49:57.166Z,101244.92
2018-05-07T06:52:26.373Z,101242.16
2018-05-07T06:54:54.812Z,101242.97
2018-05-07T06:57:23.239Z,101241.62
2018-05-07T06:59:51.672Z,101244.17
2018-05-07T07:02:20.446Z,101245.78
2018-05-07T07:04:48.806Z,101239.98
2018-05-07T07:07:17.217Z,101239.20
2018-05-07T07:09:45.640Z,101239.06
2018-05-07T07:12:14.865Z,101243.25
2018-05-07T07:14:44.047Z,101235.51
2018-05-07T07:17:12.480Z,101238.03
2018-05-07T07:19:41.686Z,101233.92
2018-05-07T07:22:10.967Z,101231.72
2018-05-07T07:24:39.403Z,101223.75
2018-05-07T07:27:07.862Z,101224.55
2018-05-07T07:29:36.282Z,101228.78
2018-05-07T07:32:04.735Z,101223.29
2018-05-07T07:34:33.196Z,101224.35
2018-05-07T07:37:01.614Z,101224.73
2018-05-07T07:39:30.142Z,101233.52
2018-05-07T07:41:58.550Z,101225.84
2018-05-07T07:44:27.033Z,101228.54
2018-05-07T07:46:55.439Z,101221.47
2018-05-07T07:49:23.862Z,101228.42
2018-05-07T07:51:52.320Z,101224.58
2018-05-07T07:54:20.761Z,101223.23
2018-05-07T07:56:49.250Z,101219.77
2018-05-07T07:59:17.701Z,101216.15
2018-05-07T08:01:46.962Z,101219.99
2018-05-07T08:04:15.496Z,101218.72
2018-05-07T08:06:44.670Z,101222.64
2018-05-07T08:09:13.863Z,101218.13
2018-05-07T08:11:43.238Z,101218.94
2018-05-07T08:14:11.686Z,101219.39
2018-05-07T08:16:40.175Z,101211.91
2018-05-07T08:19:08.693Z,101213.20
2018-05-07T08:21:37.143Z,101212.70
2018-05-07T08:24:06.426Z,101211.27
2018-05-07T08:26:34.848Z,101203.63
2018-05-07T08:29:03.375Z,101203.52
2018-05-07T08:31:32.605Z,101198.45
2018-05-07T08:34:01.049Z,101193.36
2018-05-07T08:36:29.521Z,101188.55
2018-05-07T08:38:57.959Z,101187.59
2018-05-07T08:41:26.407Z,101187.73
2018-05-07T08:43:54.849Z,101182.68
2018-05-07T08:46:23.307Z,101179.56
2018-05-07T08:48:51.740Z,101177.84
2018-05-07T08:51:20.933Z,101166.56
2018-05-07T08:53:49.400Z,101170.64
2018-05-07T08:56:17.868Z,101164.56
2018-05-07T08:58:47.092Z,101164.73
2018-05-07T09:01:15.524Z,101159.72
2018-05-07T09:03:43.990Z,101160.52
2018-05-07T09:06:12.432Z,101150.91
2018-05-07T09:08:41.747Z,101158.56
2018-05-07T09:11:10.242Z,101153.79
2018-05-07T09:13:39.561Z,101149.05
2018-05-07T09:16:07.969Z,101144.65
2018-05-07T09:18:36.424Z,101147.29
2018-05-07T09:21:04.919Z,101156.96
2018-05-07T09:23:33.366Z,101151.20
2018-05-07T09:26:01.868Z,101148.41
2018-05-07T09:28:30.299Z,101139.35
2018-05-07T09:30:58.760Z,101142.91
2018-05-07T09:33:27.274Z,101136.07
2018-05-07T09:35:55.753Z,101139.48
2018-05-07T09:38:24.180Z,101127.77
2018-05-07T09:40:52.657Z,101124.16
2018-05-07T09:43:21.130Z,101123.73
2018-05-07T09:45:49.562Z,101127.80
2018-05-07T09:48:18.035Z,101119.53
2018-05-07T09:50:46.492Z,101115.91
2018-05-07T09:53:14.954Z,101117.14
2018-05-07T09:55:43.433Z,101118.42
2018-05-07T09:58:11.859Z,101113.85
2018-05-07T10:00:40.353Z,101112.83
2018-05-07T10:03:08.795Z,101109.16
2018-05-07T10:05:37.283Z,101100.55
2018-05-07T10:08:06.541Z,101096.02
2018-05-07T10:10:35.021Z,101096.68
2018-05-07T10:13:03.495Z,101092.36
2018-05-07T10:15:31.978Z,101088.95
2018-05-07T10:18:00.461Z,101091.45
2018-05-07T10:20:28.907Z,101080.03
2018-05-07T10:22:57.391Z,101082.03
2018-05-07T10:25:25.841Z,101077.45
2018-05-07T10:27:54.301Z,101078.05
2018-05-07T10:30:22.819Z,101076.72
2018-05-07T10:32:51.344Z,101079.59
2018-05-07T10:35:19.848Z,101076.16
2018-05-07T10:37:48.269Z,101069.97
2018-05-07T10:40:16.735Z,101068.31
2018-05-07T10:42:45.194Z,101060.70
2018-05-07T10:45:13.661Z,101053.30
2018-05-07T10:47:42.128Z,101063.59
2018-05-07T10:50:10.604Z,101063.13
2018-05-07T10:52:39.064Z,101056.72
2018-05-07T10:55:07.529Z,101058.28
2018-05-07T10:57:36.046Z,101050.61
2018-05-07T11:00:04.509Z,101050.08
2018-05-07T11:02:32.969Z,101052.45
2018-05-07T11:05:01.398Z,101049.11
2018-05-07T11:07:29.885Z,101049.25
2018-05-07T11:09:58.325Z,101041.23
2018-05-07T11:12:26.793Z,101033.71
2018-05-07T11:14:55.222Z,101026.55
2018-05-07T11:17:23.670Z,101023.86
2018-05-07T11:19:52.108Z,101021.97
2018-05-07T11:22:20.546Z,101020.66
2018-05-07T11:24:48.998Z,101015.06
2018-05-07T11:27:18.231Z,101010.28
2018-05-07T11:29:46.714Z,101015.33
2018-05-07T11:32:15.151Z,101017.64
2018-05-07T11:34:43.641Z,101017.72
2018-05-07T11:37:12.861Z,101015.60
2018-05-07T11:39:41.291Z,101023.61
2018-05-07T11:42:09.797Z,101019.05
2018-05-07T11:44:38.252Z,101017.87
2018-05-07T11:47:06.751Z,101011.91
2018-05-07T11:49:35.216Z,101012.84
2018-05-07T11:52:03.683Z,101004.97
2018-05-07T11:54:32.138Z,101007.45
2018-05-07T11:57:00.628Z,101005.30
2018-05-07T11:59:29.097Z,101003.13
2018-05-07T12:01:57.518Z,100991.56
2018-05-07T12:04:25.963Z,100995.76
2018-05-07T12:06:54.447Z,100990.16
2018-05-07T12:09:23.113Z,100990.87
2018-05-07T12:11:51.569Z,100980.37
2018-05-07T12:14:19.988Z,100978.89
2018-05-07T12:16:48.453Z,100971.19
2018-05-07T12:19:16.881Z,100978.41
2018-05-07T12:21:45.343Z,100975.45
2018-05-07T12:24:13.793Z,100969.38
2018-05-07T12:26:42.273Z,100971.29
2018-05-07T12:29:11.544Z,100972.23
2018-05-07T12:31:40.063Z,100966.67
2018-05-07T12:34:08.519Z,100968.63
2018-05-07T12:36:37.006Z,100964.23
2018-05-07T12:39:05.565Z,100961.02
2018-05-07T12:41:34.021Z,100955.39
2018-05-07T12:44:02.485Z,100960.62
2018-05-07T12:46:30.942Z,100953.98
2018-05-07T12:49:00.176Z,100946.90
2018-05-07T12:51:28.639Z,100947.12
2018-05-07T12:53:57.080Z,100939.06
2018-05-07T12:56:27.261Z,100940.89
2018-05-07T12:58:57.725Z,100938.10
2018-05-07T13:01:26.208Z,100938.33
2018-05-07T13:03:54.679Z,100928.92
2018-05-07T13:06:23.168Z,100925.81
2018-05-07T13:08:51.604Z,100929.50
2018-05-07T13:11:20.071Z,100928.13
2018-05-07T13:13:48.520Z,100926.88
2018-05-07T13:16:16.942Z,100919.05
2018-05-07T13:18:45.481Z,100913.41
2018-05-07T13:21:14.952Z,100911.25
2018-05-07T13:23:43.441Z,100910.88
2018-05-07T13:26:11.870Z,100909.05
2018-05-07T13:28:41.083Z,100902.46
2018-05-07T13:31:09.560Z,100896.39
2018-05-07T13:33:38.036Z,100896.59
2018-05-07T13:36:06.489Z,100898.41
2018-05-07T13:38:34.946Z,100887.41
2018-05-07T13:41:03.398Z,100889.31
2018-05-07T13:43:31.819Z,100886.68
2018-05-07T13:46:01.963Z,100881.48
2018-05-07T13:48:31.140Z,100876.86
2018-05-07T13:51:03.169Z,100873.28
2018-05-07T13:53:31.593Z,100866.36
2018-05-07T13:56:00.044Z,100870.75
2018-05-07T13:58:28.541Z,100869.97
2018-05-07T14:00:56.974Z,100862.08
2018-05-07T14:03:25.451Z,100856.09
2018-05-07T14:05:53.883Z,100855.95
2018-05-07T14:08:22.452Z,100845.95
2018-05-07T14:10:52.845Z,100851.05
2018-05-07T14:13:21.306Z,100839.61
2018-05-07T14:15:49.751Z,100837.67
2018-05-07T14:18:18.175Z,100832.56
2018-05-07T14:20:46.611Z,100833.28
2018-05-07T14:23:15.019Z,100823.33
2018-05-07T14:25:43.489Z,100826.06
2018-05-07T14:28:12.694Z,100820.72
2018-05-07T14:30:41.172Z,100826.15
2018-05-07T14:33:09.630Z,100818.11
2018-05-07T14:35:38.099Z,100822.34
2018-05-07T14:38:06.529Z,100812.79
2018-05-07T14:40:34.962Z,100812.45
2018-05-07T14:43:03.453Z,100811.73
2018-05-07T14:45:32.664Z,100806.98
2018-05-07T14:48:01.184Z,100811.28
2018-05-07T14:50:30.394Z,100805.75
2018-05-07T14:52:58.857Z,100799.64
2018-05-07T14:55:27.283Z,100802.59
2018-05-07T14:57:55.740Z,100796.43
2018-05-07T15:00:24.150Z,100798.89
2018-05-07T15:02:52.549Z,100797.58
2018-05-07T15:05:20.972Z,100788.62
2018-05-07T15:07:49.398Z,100790.88
2018-05-07T15:10:17.905Z,100787.40
2018-05-07T15:12:46.389Z,100788.39
2018-05-07T15:15:14.853Z,100790.91
2018-05-07T15:17:44.453Z,100785.20
2018-05-07T15:20:12.929Z,100779.70
2018-05-07T15:22:41.333Z,100783.37
2018-05-07T15:25:09.793Z,100771.45
2018-05-07T15:27:38.230Z,100775.20
2018-05-07T15:30:06.667Z,100775.87
2018-05-07T15:32:35.106Z,100770.88
2018-05-07T15:35:03.546Z,100778.79
2018-05-07T15:37:32.043Z,100773.43
2018-05-07T15:40:00.483Z,100771.78
2018-05-07T15:42:29.070Z,100772.70
2018-05-07T15:44:57.501Z,100764.18
2018-05-07T15:47:25.978Z,100762.99
2018-05-07T15:49:54.450Z,100768.09
2018-05-07T15:52:23.586Z,100755.83
2018-05-07T15:54:52.110Z,100760.67
2018-05-07T15:57:20.604Z,100752.06
2018-05-07T15:59:49.082Z,100756.33
2018-05-07T16:02:17.503Z,100752.08
2018-05-07T16:04:45.943Z,100747.47
2018-05-07T16:07:15.230Z,100743.97
2018-05-07T16:09:43.676Z,100745.97
2018-05-07T16:12:12.134Z,100746.40
2018-05-07T16:14:40.581Z,100741.80
2018-05-07T16:17:09.010Z,100738.44
2018-05-07T16:19:37.472Z,100738.62
2018-05-07T16:22:06.749Z,100738.72
2018-05-07T16:24:35.132Z,100733.62
2018-05-07T16:27:03.577Z,100733.91
2018-05-07T16:29:32.011Z,100732.39
2018-05-07T16:32:00.500Z,100720.47
2018-05-07T16:34:29.058Z,100720.07
2018-05-07T16:36:57.528Z,100711.14
2018-05-07T16:39:25.991Z,100711.25
2018-05-07T16:41:54.439Z,100709.00
2018-05-07T16:44:23.183Z,100709.22
2018-05-07T16:46:51.673Z,100708.05
2018-05-07T16:49:20.116Z,100704.21
2018-05-07T16:51:48.548Z,100700.34
2018-05-07T16:54:17.791Z,100694.44
2018-05-07T16:56:46.799Z,100699.36
2018-05-07T16:59:16.037Z,100698.70
2018-05-07T17:01:44.487Z,100699.23
2018-05-07T17:04:12.928Z,100693.61
2018-05-07T17:06:41.394Z,100689.59
2018-05-07T17:09:09.834Z,100688.98
2018-05-07T17:11:38.285Z,100689.78
2018-05-07T17:14:06.764Z,100683.98
2018-05-07T17:16:35.250Z,100681.59
2018-05-07T17:19:03.984Z,100690.30
2018-05-07T17:21:32.897Z,100681.88
2018-05-07T17:24:01.451Z,100678.72
2018-05-07T17:26:29.883Z,100673.37
2018-05-07T17:28:58.375Z,100675.44
2018-05-07T17:31:26.838Z,100677.92
2018-05-07T17:33:55.405Z,100673.49
2018-05-07T17:36:23.873Z,100679.23
2018-05-07T17:38:52.311Z,100682.67
2018-05-07T17:41:20.750Z,100681.77
2018-05-07T17:43:49.191Z,100676.78
2018-05-07T17:46:31.295Z,100680.55
2018-05-07T17:48:59.782Z,100680.36
2018-05-07T17:51:29.006Z,100676.58
2018-05-07T17:53:57.447Z,100675.23
2018-05-07T17:56:25.989Z,100675.20
2018-05-07T17:58:54.434Z,100670.19
2018-05-07T18:01:22.937Z,100678.25
2018-05-07T18:03:51.384Z,100674.69
2018-05-07T18:06:19.831Z,100676.15
2018-05-07T18:08:48.349Z,100673.68
2018-05-07T18:11:16.804Z,100675.41
2018-05-07T18:13:45.262Z,100678.14
2018-05-07T18:16:13.740Z,100675.22
2018-05-07T18:18:42.321Z,100678.68
2018-05-07T18:21:10.690Z,100677.03
2018-05-07T18:23:39.178Z,100685.72
2018-05-07T18:26:08.402Z,100686.48
2018-05-07T18:28:40.213Z,100689.17
2018-05-07T18:31:08.726Z,100690.55
2018-05-07T18:33:37.280Z,100682.28
2018-05-07T18:36:06.072Z,100691.73
2018-05-07T18:38:34.631Z,100682.81
2018-05-07T18:41:03.220Z,100687.55
2018-05-07T18:43:31.740Z,100692.61
2018-05-07T18:46:00.265Z,100687.89
2018-05-07T18:48:28.994Z,100687.16
2018-05-07T18:50:57.545Z,100689.91
2018-05-07T18:53:26.303Z,100689.11
2018-05-07T18:55:55.781Z,100696.59
2018-05-07T18:58:25.522Z,100697.35
2018-05-07T19:00:54.793Z,100695.97
2018-05-07T19:03:24.501Z,100698.73
2018-05-07T19:05:54.015Z,100699.38
2018-05-07T19:08:23.607Z,100704.57
2018-05-07T19:10:52.588Z,100706.00
2018-05-07T19:13:21.439Z,100705.55
2018-05-07T19:15:50.159Z,100707.30
2018-05-07T19:18:19.648Z,100707.41
2018-05-07T19:20:49.554Z,100706.19
2018-05-07T19:23:18.433Z,100716.55
2018-05-07T19:25:48.025Z,100711.20
2018-05-07T19:28:17.540Z,100713.35
2018-05-07T19:30:46.884Z,100715.94
2018-05-07T19:33:16.303Z,100719.41
2018-05-07T19:35:45.341Z,100720.58
2018-05-07T19:38:13.913Z,100715.61
2018-05-07T19:40:42.651Z,100723.66
2018-05-07T19:43:11.113Z,100724.49
2018-05-07T19:45:39.567Z,100726.26
2018-05-07T19:48:08.063Z,100731.58
2018-05-07T19:50:36.553Z,100734.22
2018-05-07T19:53:05.256Z,100742.84
2018-05-07T19:55:34.620Z,100735.95
2018-05-07T19:58:03.121Z,100732.95
2018-05-07T20:00:31.547Z,100736.31
2018-05-07T20:03:00.292Z,100740.42
2018-05-07T20:05:28.754Z,100735.41
2018-05-07T20:07:57.235Z,100741.66
2018-05-07T20:10:26.492Z,100744.83
2018-05-07T20:12:54.965Z,100744.89
2018-05-07T20:15:24.239Z,100733.65
2018-05-07T20:17:52.701Z,100744.52
2018-05-07T20:20:21.157Z,100745.56
2018-05-07T20:22:49.585Z,100738.08
2018-05-07T20:25:18.077Z,100743.43
2018-05-07T20:27:46.541Z,100747.89
2018-05-07T20:30:15.058Z,100740.22
2018-05-07T20:32:43.570Z,100743.55
2018-05-07T20:35:12.093Z,100741.80
2018-05-07T20:37:40.559Z,100738.80
2018-05-07T20:40:09.072Z,100738.86
2018-05-07T20:42:37.603Z,100735.77
2018-05-07T20:45:08.153Z,100736.38
2018-05-07T20:47:36.630Z,100738.30
2018-05-07T20:50:05.872Z,100738.28
2018-05-07T20:52:34.314Z,100746.07
2018-05-07T20:55:02.809Z,100749.44
2018-05-07T20:57:31.262Z,100746.39
2018-05-07T21:00:00.475Z,100743.86
2018-05-07T21:02:28.924Z,100748.07
2018-05-07T21:05:01.747Z,100740.65
2018-05-07T21:07:30.210Z,100738.98
2018-05-07T21:09:59.689Z,100730.30
2018-05-07T21:12:28.204Z,100731.04
2018-05-07T21:14:56.708Z,100726.20
2018-05-07T21:17:25.510Z,100726.83
2018-05-07T21:19:53.966Z,100732.53
2018-05-07T21:22:22.484Z,100736.47
2018-05-07T21:24:50.994Z,100731.87
2018-05-07T21:27:19.477Z,100730.57
2018-05-07T21:29:47.922Z,100728.73
2018-05-07T21:32:16.376Z,100724.27
2018-05-07T21:34:44.872Z,100728.67
2018-05-07T21:37:13.323Z,100723.45
2018-05-07T21:39:41.803Z,100727.89
2018-05-07T21:42:11.483Z,100726.51
2018-05-07T21:44:40.424Z,100720.61
2018-05-07T21:47:08.937Z,100725.11
2018-05-07T21:49:37.433Z,100722.88
2018-05-07T21:52:05.953Z,100730.49
2018-05-07T21:54:34.442Z,100733.32
2018-05-07T21:57:05.005Z,100721.08
2018-05-07T21:59:33.562Z,100720.50
2018-05-07T22:02:02.915Z,100728.02
2018-05-07T22:04:35.304Z,100733.23
2018-05-07T22:07:04.114Z,100734.77
2018-05-07T22:09:33.114Z,100732.61
2018-05-07T22:12:01.589Z,100731.06
2018-05-07T22:14:32.713Z,100731.45
2018-05-07T22:17:01.276Z,100735.09
2018-05-07T22:19:29.825Z,100728.95
2018-05-07T22:21:58.330Z,100728.40
2018-05-07T22:24:27.041Z,100724.55
2018-05-07T22:26:55.563Z,100729.98
2018-05-07T22:29:23.996Z,100724.73
2018-05-07T22:31:52.519Z,100729.39
2018-05-07T22:34:21.022Z,100726.03
2018-05-07T22:36:50.866Z,100727.32
2018-05-07T22:39:19.379Z,100728.75
2018-05-07T22:41:49.998Z,100724.92
2018-05-07T22:44:20.086Z,100721.75
2018-05-07T22:46:48.830Z,100718.22
2018-05-07T22:49:17.483Z,100722.08
2018-05-07T22:51:47.273Z,100725.19
2018-05-07T22:54:16.356Z,100720.80
2018-05-07T22:56:45.500Z,100716.84
2018-05-07T22:59:14.065Z,100719.94
2018-05-07T23:01:46.407Z,100718.98
2018-05-07T23:04:15.162Z,100718.97
2018-05-07T23:06:43.729Z,100718.95
2018-05-07T23:09:12.189Z,100722.34
2018-05-07T23:11:40.643Z,100723.32
2018-05-07T23:14:09.145Z,100719.69
2018-05-07T23:16:37.613Z,100721.66
2018-05-07T23:19:06.044Z,100719.88
2018-05-07T23:21:34.553Z,100713.86
2018-05-07T23:24:03.089Z,100713.41
2018-05-07T23:26:31.672Z,100712.72
2018-05-07T23:29:00.169Z,100714.28
2018-05-07T23:31:29.369Z,100709.72
2018-05-07T23:33:57.845Z,100705.44
2018-05-07T23:36:26.460Z,100713.02
2018-05-07T23:38:55.267Z,100711.98
2018-05-07T23:41:25.101Z,100704.95
2018-05-07T23:43:53.595Z,100702.43
2018-05-07T23:46:24.232Z,100703.45
2018-05-07T23:48:52.765Z,100689.90
2018-05-07T23:51:21.439Z,100685.77
2018-05-07T23:53:50.686Z,100688.23
2018-05-07T23:56:37.325Z,100685.61
2018-05-07T23:59:07.756Z,100681.95
